Wayland, Kentucky
Current Conditions -  °F | °C
As of 10:55 PM on Thursday 18 Dec 2014 (Local Time) from KPBX Reporting Station
Broken Clouds Broken Clouds  
Wind Chill: 25°   Ceiling: 8000
Heat Index: 30°   Visibility: 10mi
Dew Point: 25°   Wind: 5mph
Humidity: 80%   Direction: 320°NW
Pressure: 30.18"   Gusts: NA
Location:  37.45°N, 82.81°W
Report Text: KPBX 190355Z AUTO 32004KT 10SM SCT070 BKN080 M01/M04 A3018 RMK AO2 T10101041
Loading
Personal Weather Stations






























Interactive Weather Map New forecast layout! Learn more

10-Day Weather Forecast

Advertisements
Track Severe Weather on mobile